Time;durP1;ratioP1;P1;durP2;ratioP2;P2;SDS_P1;SDS_P2;PMS_P1;PMS_P2;Temp;Humidity;BMP_temperature;BMP_pressure;BME280_temperature;BME280_humidity;BME280_pressure;Samples;Min_cycle;Max_cycle;Signal;HPM_P1;HPM_P2
2022/12/22 06:39:34;;;;;;;42.63;26.63;;;;;;;0.90;100.00;99576.56;1743822;79;22719;-78
2022/12/22 06:44:49;;;;;;;35.60;25.02;;;;;;;1.08;100.00;99569.47;1701219;83;21856;-82
2022/12/22 06:47:16;;;;;;;49.42;30.52;;;;;;;1.16;100.00;99574.61;1701922;84;21026;-79
2022/12/22 06:49:44;;;;;;;44.88;30.57;;;;;;;1.22;100.00;99589.24;1702789;84;20975;-81
2022/12/22 06:52:12;;;;;;;45.23;30.02;;;;;;;1.30;100.00;99596.22;1680488;83;21590;-82
2022/12/22 06:54:39;;;;;;;34.38;25.62;;;;;;;1.39;100.00;99595.59;1685666;84;20950;-77
2022/12/22 06:57:06;;;;;;;36.23;24.40;;;;;;;1.47;100.00;99605.53;1702466;84;21101;-79
2022/12/22 06:59:34;;;;;;;42.73;27.05;;;;;;;1.52;100.00;99612.40;1702050;84;20974;-79
2022/12/22 07:02:01;;;;;;;42.48;28.10;;;;;;;1.56;100.00;99605.69;1701191;84;21022;-78
2022/12/22 07:04:29;;;;;;;44.42;28.45;;;;;;;1.60;100.00;99609.59;1656440;84;21125;-79
2022/12/22 07:06:56;;;;;;;48.38;29.15;;;;;;;1.62;99.31;99610.22;1702136;84;21062;-77
2022/12/22 07:09:22;;;;;;;38.67;29.05;;;;;;;1.63;98.95;99605.21;1701855;83;21585;-78
2022/12/22 07:11:49;;;;;;;41.68;28.32;;;;;;;1.68;98.83;99609.93;1665452;85;21015;-77
2022/12/22 07:14:15;;;;;;;39.77;25.60;;;;;;;1.73;98.50;99609.66;1694284;84;21053;-78
2022/12/22 07:16:42;;;;;;;42.67;28.27;;;;;;;1.80;98.20;99608.89;1687923;84;21049;-77
2022/12/22 07:19:08;;;;;;;44.98;28.35;;;;;;;1.80;97.38;99601.76;1691304;83;21055;-79
2022/12/22 07:21:35;;;;;;;46.35;31.20;;;;;;;1.81;97.15;99591.98;1672107;84;21164;-80
2022/12/22 07:24:01;;;;;;;43.23;28.15;;;;;;;1.83;97.02;99596.05;1701783;84;21030;-77
2022/12/22 07:26:30;;;;;;;44.70;27.50;;;;;;;1.87;96.60;99600.48;1674965;84;20992;-78
2022/12/22 07:28:57;;;;;;;34.48;23.95;;;;;;;1.91;96.55;99593.27;1699987;83;21095;-80
2022/12/22 07:31:23;;;;;;;37.25;28.77;;;;;;;1.96;96.14;99599.30;1693004;83;21576;-80
2022/12/22 07:33:50;;;;;;;36.58;26.87;;;;;;;1.97;95.79;99596.44;1723238;83;21666;-78
2022/12/22 07:36:19;;;;;;;34.58;26.20;;;;;;;2.00;95.54;99596.06;1697366;83;21773;-77
2022/12/22 07:38:48;;;;;;;58.20;33.53;;;;;;;2.05;95.41;99604.25;1692355;83;21036;-75
2022/12/22 07:44:01;;;;;;;44.15;28.00;;;;;;;2.11;94.37;99606.63;1687197;83;21335;-78
2022/12/22 07:46:30;;;;;;;49.73;30.25;;;;;;;2.10;94.14;99617.73;1702164;83;21601;-77
2022/12/22 07:51:44;;;;;;;41.23;28.12;;;;;;;2.23;94.17;99608.19;1714587;83;20968;-80
2022/12/22 07:54:13;;;;;;;45.48;31.45;;;;;;;2.30;93.73;99609.05;1713722;83;21020;-77
2022/12/22 07:56:39;;;;;;;41.02;29.40;;;;;;;2.35;93.43;99607.41;1713898;83;21032;-77
2022/12/22 07:59:06;;;;;;;39.65;27.55;;;;;;;2.41;93.09;99614.58;1711550;83;21626;-80
2022/12/22 08:01:33;;;;;;;45.88;31.82;;;;;;;2.41;92.54;99611.11;1694409;83;21149;-79
2022/12/22 08:04:00;;;;;;;41.48;28.80;;;;;;;2.41;92.28;99614.58;1696015;83;21572;-78
2022/12/22 08:06:27;;;;;;;47.00;31.55;;;;;;;2.42;91.92;99611.42;1714818;83;21541;-78
2022/12/22 08:08:53;;;;;;;43.87;28.07;;;;;;;2.43;91.94;99597.97;1711761;83;21071;-78
2022/12/22 08:11:21;;;;;;;48.42;31.27;;;;;;;2.48;91.78;99596.86;1691376;84;21099;-81
2022/12/22 08:13:48;;;;;;;50.65;31.42;;;;;;;2.52;91.53;99598.09;1676614;83;20992;-78
2022/12/22 08:16:16;;;;;;;45.35;30.10;;;;;;;2.60;91.48;99600.55;1690059;83;21034;-76
2022/12/22 08:18:53;;;;;;;46.92;32.70;;;;;;;2.66;91.20;99606.08;1699013;83;21094;-86
2022/12/22 08:21:21;;;;;;;48.75;31.75;;;;;;;2.72;90.99;99597.31;1714826;83;21079;-75
2022/12/22 08:23:48;;;;;;;49.40;32.95;;;;;;;2.77;90.63;99616.12;1714152;83;21435;-76
2022/12/22 08:26:25;;;;;;;49.15;33.25;;;;;;;2.79;90.00;99602.94;1688742;83;21013;-80
2022/12/22 08:28:59;;;;;;;51.25;32.05;;;;;;;2.78;89.76;99591.20;1692679;83;22241;-76
2022/12/22 08:31:26;;;;;;;48.45;31.25;;;;;;;2.83;89.57;99604.70;1714558;83;21197;-74
2022/12/22 08:33:56;;;;;;;45.52;29.57;;;;;;;2.90;89.47;99605.52;1714225;83;21095;-77
2022/12/22 08:36:24;;;;;;;51.73;32.30;;;;;;;2.96;89.19;99591.43;1712464;83;21239;-75
2022/12/22 08:38:50;;;;;;;44.65;31.07;;;;;;;3.00;88.75;99590.82;1708663;83;21285;-77
2022/12/22 08:41:48;;;;;;;42.43;29.45;;;;;;;3.01;87.86;99584.49;1678761;83;21011;-73
2022/12/22 08:43:45;;;;;;;42.73;29.82;;;;;;;2.95;87.46;99579.16;1679807;83;21263;-81
2022/12/22 08:46:11;;;;;;;47.80;34.45;;;;;;;2.95;87.46;99579.16;1690096;83;21567;-83
2022/12/22 08:48:39;;;;;;;43.13;30.92;;;;;;;2.90;87.46;99573.13;1700472;83;21158;-83
2022/12/22 08:51:05;;;;;;;40.08;29.37;;;;;;;2.89;87.51;99563.52;1686243;83;21689;-82
2022/12/22 08:53:32;;;;;;;43.23;31.73;;;;;;;2.87;87.29;99560.27;1695995;83;21016;-76
2022/12/22 08:55:58;;;;;;;41.40;30.52;;;;;;;2.86;87.28;99567.10;1692984;83;21048;-78
2022/12/22 08:58:25;;;;;;;43.20;29.52;;;;;;;2.90;87.39;99566.50;1707794;83;21071;-76
2022/12/22 09:00:52;;;;;;;46.75;31.10;;;;;;;2.93;87.13;99565.25;1712073;83;21633;-77
2022/12/22 09:03:18;;;;;;;41.80;32.93;;;;;;;2.97;87.03;99561.20;1711330;83;21536;-72
2022/12/22 09:05:45;;;;;;;39.00;29.35;;;;;;;3.02;86.89;99557.42;1706813;83;21068;-72
2022/12/22 09:08:11;;;;;;;48.65;33.92;;;;;;;3.03;86.37;99557.70;1642752;86;21106;-71
2022/12/22 09:10:42;;;;;;;50.90;31.02;;;;;;;3.03;86.37;99557.70;1641299;87;21016;-72
2022/12/22 09:13:09;;;;;;;42.43;29.18;;;;;;;3.12;86.09;99553.02;1665699;86;21756;-71
2022/12/22 09:15:36;;;;;;;43.48;30.92;;;;;;;3.12;86.09;99553.02;1663795;86;21594;-78
2022/12/22 09:18:03;;;;;;;45.90;30.97;;;;;;;3.07;85.41;99551.77;1668148;85;21512;-76
2022/12/22 09:20:29;;;;;;;45.92;31.77;;;;;;;3.05;85.49;99562.31;1668265;85;20917;-77
2022/12/22 09:22:56;;;;;;;47.62;29.18;;;;;;;3.12;85.26;99561.00;1668256;86;21120;-79
2022/12/22 09:25:22;;;;;;;47.25;33.95;;;;;;;3.12;85.26;99561.00;1664020;84;21162;-76
2022/12/22 09:27:50;;;;;;;45.00;30.30;;;;;;;3.13;85.27;99563.94;1661309;84;21011;-76
2022/12/22 09:30:20;;;;;;;48.42;33.42;;;;;;;3.15;84.77;99564.56;1613373;88;20971;-75
2022/12/22 09:32:47;;;;;;;50.55;33.10;;;;;;;3.16;85.07;99557.72;1623331;87;20995;-75
2022/12/22 09:35:14;;;;;;;49.90;34.70;;;;;;;3.26;84.86;99563.95;1648002;84;21056;-76
2022/12/22 09:37:42;;;;;;;46.10;32.55;;;;;;;3.34;84.61;99568.54;1640787;86;21263;-74
2022/12/22 09:40:10;;;;;;;51.88;33.35;;;;;;;3.38;84.29;99576.91;1666580;84;21052;-77
2022/12/22 09:42:37;;;;;;;51.30;33.60;;;;;;;3.43;83.95;99569.95;1666169;86;21067;-75
2022/12/22 09:45:07;;;;;;;57.55;37.60;;;;;;;3.46;83.69;99574.84;1654151;84;21055;-77
2022/12/22 09:47:37;;;;;;;56.53;36.63;;;;;;;3.48;83.36;99567.50;1688750;84;21007;-74
2022/12/22 09:50:07;;;;;;;48.90;34.83;;;;;;;3.50;83.28;99556.66;1661965;86;21194;-73
2022/12/22 09:52:39;;;;;;;56.30;35.63;;;;;;;3.50;83.18;99554.00;1693558;84;21571;-76
2022/12/22 09:55:16;;;;;;;51.45;35.28;;;;;;;3.50;83.16;99561.44;1692427;84;21047;-75
2022/12/22 09:57:43;;;;;;;51.70;35.43;;;;;;;3.53;83.14;99546.93;1692695;84;21055;-76
2022/12/22 10:00:17;;;;;;;49.73;34.43;;;;;;;3.56;82.97;99557.14;1643848;84;21123;-76
2022/12/22 10:03:24;;;;;;;51.70;37.38;;;;;;;3.58;82.68;99556.44;1666569;84;21158;-79
2022/12/22 10:06:24;;;;;;;46.80;33.35;;;;;;;3.62;82.55;99551.51;1650507;85;21039;-71
2022/12/22 10:08:53;;;;;;;53.48;35.30;;;;;;;3.59;82.17;99554.09;1643161;84;21053;-73
2022/12/22 10:11:19;;;;;;;49.53;34.13;;;;;;;3.53;82.00;99563.39;1667492;84;21015;-72
2022/12/22 10:13:45;;;;;;;51.05;36.58;;;;;;;3.49;82.25;99556.35;1684837;84;21091;-71
2022/12/22 10:16:23;;;;;;;47.33;35.48;;;;;;;3.49;82.35;99561.67;1676499;84;21241;-71
2022/12/22 10:19:00;;;;;;;51.50;35.35;;;;;;;3.50;82.53;99552.13;1680289;84;20999;-72
2022/12/22 10:21:27;;;;;;;56.83;37.50;;;;;;;3.54;82.40;99559.20;1678424;84;21579;-74
2022/12/22 10:23:54;;;;;;;54.03;38.23;;;;;;;3.53;82.31;99558.89;1692186;84;21086;-72
2022/12/22 10:26:24;;;;;;;52.90;36.55;;;;;;;3.53;82.39;99556.23;1691189;84;21031;-71
2022/12/22 10:29:06;;;;;;;53.23;39.13;;;;;;;3.56;82.59;99551.00;1664851;86;21954;-73
2022/12/22 10:31:34;;;;;;;63.50;39.92;;;;;;;3.62;82.35;99552.84;1672746;84;20996;-73
2022/12/22 10:34:15;;;;;;;53.08;37.90;;;;;;;3.66;82.33;99546.89;1691108;84;20995;-73
2022/12/22 10:36:51;;;;;;;48.20;34.55;;;;;;;3.70;81.97;99545.45;1636523;86;21021;-72
2022/12/22 10:39:29;;;;;;;57.88;37.50;;;;;;;3.69;81.86;99541.69;1662264;84;21029;-71
2022/12/22 10:42:00;;;;;;;55.30;37.55;;;;;;;3.71;81.94;99539.62;1675151;84;21397;-71
2022/12/22 10:44:33;;;;;;;49.05;33.73;;;;;;;3.70;81.88;99526.02;1660850;84;21023;-75
2022/12/22 10:47:03;;;;;;;52.17;36.88;;;;;;;3.69;81.89;99524.41;1644547;86;21103;-72
2022/12/22 10:49:37;;;;;;;55.30;37.88;;;;;;;3.69;81.96;99520.41;1676308;85;21081;-74
2022/12/22 10:52:16;;;;;;;57.70;36.42;;;;;;;3.69;82.09;99515.91;1642665;86;21337;-74
2022/12/22 10:54:43;;;;;;;46.00;32.60;;;;;;;3.73;82.17;99510.47;1693326;84;21160;-73
2022/12/22 10:57:19;;;;;;;47.45;33.63;;;;;;;3.80;82.16;99513.91;1685788;84;21030;-74
2022/12/22 14:48:08;;;;;;;49.13;35.67;;;;;;;2.96;94.33;99515.22;1727688;83;27021;-76
2022/12/22 14:50:35;;;;;;;50.10;34.27;;;;;;;3.05;93.81;99515.82;1727459;82;21041;-77
2022/12/22 14:53:03;;;;;;;53.83;36.63;;;;;;;3.15;93.39;99513.56;1730653;81;21851;-77
2022/12/22 14:55:41;;;;;;;55.65;33.78;;;;;;;3.22;92.78;99512.21;1739513;81;21018;-87
2022/12/22 14:58:16;;;;;;;51.30;35.38;;;;;;;3.29;92.33;99514.36;1721980;82;20900;-79
2022/12/22 15:00:46;;;;;;;55.03;34.60;;;;;;;3.30;91.46;99516.00;1701531;83;21563;-77
2022/12/22 15:03:36;;;;;;;55.70;35.90;;;;;;;3.32;91.13;99516.09;1686134;82;20962;-77
2022/12/22 15:06:28;;;;;;;57.73;37.83;;;;;;;3.36;90.89;99505.84;1764788;81;21834;-79
2022/12/22 15:09:10;;;;;;;53.65;36.23;;;;;;;3.41;90.46;99499.39;1737143;81;20966;-80
2022/12/22 15:11:38;;;;;;;61.35;38.63;;;;;;;3.44;90.02;99499.82;1731573;81;21043;-82
2022/12/22 15:14:04;;;;;;;58.33;37.95;;;;;;;3.51;89.80;99505.92;1734807;81;21075;-86
2022/12/22 15:16:33;;;;;;;51.65;34.75;;;;;;;3.54;89.43;99507.36;1728425;82;21055;-90
2022/12/22 15:19:00;;;;;;;55.95;39.33;;;;;;;3.57;89.12;99507.44;1711573;81;21072;-86
2022/12/22 15:21:27;;;;;;;49.63;34.40;;;;;;;3.56;88.42;99521.75;1717298;83;21022;-93
2022/12/22 15:23:56;;;;;;;58.42;39.75;;;;;;;3.56;88.42;99521.75;1706850;83;21479;-90
2022/12/22 15:26:23;;;;;;;53.85;36.17;;;;;;;3.54;88.51;99525.97;1706215;83;21016;-89
2022/12/22 15:28:49;;;;;;;55.03;38.08;;;;;;;3.56;88.49;99515.92;1694198;82;21059;-86
2022/12/22 15:31:16;;;;;;;59.15;38.55;;;;;;;3.60;88.31;99511.82;1708130;83;21111;-91
2022/12/22 15:33:44;;;;;;;60.05;39.40;;;;;;;3.64;88.11;99522.88;1694137;83;20944;-84
2022/12/22 15:36:12;;;;;;;59.88;39.18;;;;;;;3.66;87.90;99518.97;1718764;81;21242;-85
2022/12/22 15:38:41;;;;;;;65.17;40.55;;;;;;;3.68;87.74;99522.25;1679349;83;21043;-89
2022/12/22 15:41:08;;;;;;;67.92;42.55;;;;;;;3.65;87.64;99509.35;1697286;82;21034;-90
2022/12/22 15:43:35;;;;;;;70.42;45.25;;;;;;;3.67;87.49;99510.48;1702076;81;21919;-86
2022/12/22 15:46:04;;;;;;;58.80;39.18;;;;;;;3.67;87.35;99510.48;1705101;82;21080;-87
2022/12/22 15:48:34;;;;;;;63.42;42.25;;;;;;;3.67;87.21;99514.47;1695021;83;21120;-86
2022/12/22 15:51:05;;;;;;;60.65;40.55;;;;;;;3.67;87.41;99507.83;1668462;85;21591;-89
2022/12/22 15:53:33;;;;;;;60.12;40.12;;;;;;;3.71;87.36;99498.39;1682352;84;21589;-84
2022/12/22 15:56:01;;;;;;;61.42;41.92;;;;;;;3.76;87.25;99494.08;1667876;85;21386;-87
2022/12/22 15:58:34;;;;;;;57.67;41.50;;;;;;;3.81;87.19;99498.77;1661426;83;21137;-88
2022/12/22 16:01:01;;;;;;;62.73;41.10;;;;;;;3.79;86.66;99505.63;1660330;83;21520;-84
2022/12/22 16:03:28;;;;;;;61.02;41.08;;;;;;;3.76;86.76;99499.41;1693976;82;21665;-86
2022/12/22 16:05:54;;;;;;;67.00;43.48;;;;;;;3.77;86.67;99488.25;1714233;80;21063;-91
2022/12/22 16:08:28;;;;;;;52.98;35.28;;;;;;;3.76;86.62;99485.28;1693367;83;22297;-89
2022/12/22 16:10:54;;;;;;;54.23;38.70;;;;;;;3.74;86.45;99487.36;1655411;85;21619;-87
2022/12/22 16:13:27;;;;;;;59.33;38.35;;;;;;;3.74;86.60;99487.36;1656011;84;20968;-92
2022/12/22 16:15:53;;;;;;;57.08;37.78;;;;;;;3.78;86.48;99477.92;1668967;84;21039;-79
2022/12/22 16:18:20;;;;;;;62.43;42.67;;;;;;;3.82;86.37;99485.27;1672122;84;21167;-80
2022/12/22 16:20:48;;;;;;;58.33;37.78;;;;;;;3.85;86.13;99481.36;1683358;84;22012;-69
2022/12/22 16:23:29;;;;;;;57.70;38.35;;;;;;;3.87;85.80;99495.27;1667536;84;21028;-81
2022/12/22 16:26:00;;;;;;;65.05;42.43;;;;;;;3.83;85.45;99494.89;1704206;82;21048;-72
2022/12/22 16:28:29;;;;;;;52.60;36.50;;;;;;;3.82;85.37;99485.27;1698609;83;21056;-80
2022/12/22 16:31:01;;;;;;;59.42;39.67;;;;;;;3.84;85.19;99489.84;1682444;84;21040;-83
2022/12/22 16:33:32;;;;;;;64.87;43.07;;;;;;;3.91;84.97;99488.50;1684273;83;21067;-79
2022/12/22 16:36:08;;;;;;;58.52;41.08;;;;;;;3.91;84.97;99488.50;1680968;84;21876;-79
2022/12/22 16:38:40;;;;;;;53.13;37.40;;;;;;;3.98;84.86;99497.25;1659360;84;21555;-77
2022/12/22 16:41:23;;;;;;;55.12;38.33;;;;;;;3.99;83.98;99500.73;1675546;83;21077;-77
2022/12/22 16:43:52;;;;;;;59.10;38.92;;;;;;;3.95;83.87;99497.69;1675634;83;20950;-77
2022/12/22 16:46:20;;;;;;;58.00;38.30;;;;;;;3.91;83.91;99496.48;1659932;84;21755;-75
2022/12/22 16:48:56;;;;;;;63.42;41.58;;;;;;;3.90;83.90;99494.33;1665049;84;21086;-73
2022/12/22 16:51:32;;;;;;;65.00;42.23;;;;;;;3.87;83.87;99499.27;1659133;83;22203;-83
2022/12/22 16:54:02;;;;;;;54.33;38.23;;;;;;;3.87;83.82;99496.61;1660595;84;21079;-80
2022/12/22 16:56:33;;;;;;;60.70;40.92;;;;;;;3.86;83.75;99499.77;1679324;82;21050;-77
2022/12/22 16:59:03;;;;;;;61.73;40.50;;;;;;;3.87;83.67;99501.92;1686342;83;21663;-75
2022/12/22 17:01:55;;;;;;;58.52;40.23;;;;;;;3.87;83.71;99501.41;1648856;82;21535;-81
2022/12/22 17:04:28;;;;;;;59.30;40.33;;;;;;;3.88;83.55;99503.56;1645600;84;21761;-74
2022/12/22 17:07:01;;;;;;;57.88;41.08;;;;;;;3.85;83.49;99508.78;1676864;83;21138;-75
2022/12/22 17:09:33;;;;;;;60.00;39.25;;;;;;;3.83;83.55;99503.38;1702226;82;21103;-76
2022/12/22 17:12:02;;;;;;;52.25;37.67;;;;;;;3.83;83.67;99508.70;1645981;83;26402;-80
2022/12/22 17:14:38;;;;;;;53.08;36.38;;;;;;;3.80;83.86;99503.78;1690715;83;21069;-81
2022/12/22 17:17:22;;;;;;;52.05;35.35;;;;;;;3.79;84.16;99512.27;1705445;81;21010;-78
2022/12/22 17:19:53;;;;;;;53.55;36.53;;;;;;;3.76;84.71;99523.84;1666904;83;21764;-83
2022/12/22 17:22:31;;;;;;;56.95;36.83;;;;;;;3.73;85.29;99510.47;1683826;83;21739;-79
2022/12/22 17:25:03;;;;;;;60.70;38.02;;;;;;;3.72;85.70;99506.69;1698495;83;21303;-76
2022/12/22 17:27:33;;;;;;;57.53;40.03;;;;;;;3.71;86.20;99530.31;1684083;82;21649;-83
2022/12/22 17:30:02;;;;;;;59.38;38.17;;;;;;;3.69;86.68;99520.41;1696204;82;21006;-76
2022/12/22 17:32:30;;;;;;;56.10;39.58;;;;;;;3.68;87.22;99510.80;1663555;83;21816;-80
2022/12/22 17:34:58;;;;;;;65.40;44.00;;;;;;;3.66;87.44;99503.02;1694616;83;20994;-78
2022/12/22 17:37:27;;;;;;;65.45;38.70;;;;;;;3.65;87.77;99504.03;1646962;84;20971;-79
2022/12/22 17:39:59;;;;;;;63.55;41.58;;;;;;;3.63;88.15;99502.62;1684832;84;21105;-80
2022/12/22 17:42:30;;;;;;;63.63;42.03;;;;;;;3.62;88.45;99507.13;1645156;84;21431;-77
2022/12/22 17:45:02;;;;;;;59.03;37.95;;;;;;;3.63;88.78;99496.80;1681431;83;21074;-80
2022/12/22 17:47:29;;;;;;;60.92;41.30;;;;;;;3.68;89.08;99505.47;1678129;84;21094;-75
2022/12/22 17:49:57;;;;;;;64.77;42.78;;;;;;;3.64;89.33;99504.27;1666925;83;21132;-76
2022/12/22 17:52:26;;;;;;;63.78;43.60;;;;;;;3.63;89.64;99495.47;1675117;83;21610;-75
2022/12/22 17:54:53;;;;;;;56.10;37.58;;;;;;;3.65;89.87;99491.25;1677020;83;21607;-77
2022/12/22 17:57:32;;;;;;;58.25;40.83;;;;;;;3.66;90.10;99492.89;1658184;85;21782;-80
